createdAt,value
2019-05-03T00:00:13.915Z,12.70
2019-05-03T00:02:55.854Z,12.70
2019-05-03T00:05:46.717Z,12.70
2019-05-03T00:08:16.001Z,12.70
2019-05-03T00:10:45.157Z,12.70
2019-05-03T00:13:14.169Z,12.70
2019-05-03T00:16:02.686Z,12.80
2019-05-03T00:18:32.820Z,12.90
2019-05-03T00:21:02.226Z,12.90
2019-05-03T00:23:32.405Z,12.80
2019-05-03T00:26:02.651Z,12.80
2019-05-03T00:28:32.279Z,12.80
2019-05-03T00:31:01.970Z,12.70
2019-05-03T00:33:31.762Z,12.70
2019-05-03T00:36:16.711Z,12.60
2019-05-03T00:38:46.351Z,12.50
2019-05-03T00:41:15.414Z,12.50
2019-05-03T00:43:44.274Z,12.40
2019-05-03T00:46:13.283Z,12.30
2019-05-03T00:48:43.507Z,12.40
2019-05-03T00:51:12.557Z,12.30
2019-05-03T00:53:42.429Z,12.20
2019-05-03T00:56:12.234Z,12.20
2019-05-03T00:58:52.951Z,12.20
2019-05-03T01:01:22.590Z,12.20
2019-05-03T01:03:52.676Z,12.30
2019-05-03T01:06:22.343Z,12.30
2019-05-03T01:08:52.261Z,12.30
2019-05-03T01:11:23.111Z,12.30
2019-05-03T01:13:52.401Z,12.30
2019-05-03T01:16:22.787Z,12.40
2019-05-03T01:18:52.301Z,12.50
2019-05-03T01:21:22.600Z,12.40
2019-05-03T01:23:52.515Z,12.50
2019-05-03T01:26:22.732Z,12.40
2019-05-03T01:28:52.289Z,12.40
2019-05-03T01:31:22.860Z,12.40
2019-05-03T01:33:52.082Z,12.30
2019-05-03T01:36:22.845Z,12.30
2019-05-03T01:38:52.923Z,12.40
2019-05-03T01:41:22.258Z,12.40
2019-05-03T01:43:52.577Z,12.50
2019-05-03T01:46:22.782Z,12.50
2019-05-03T01:49:12.276Z,12.60
2019-05-03T01:52:02.248Z,12.60
2019-05-03T01:54:32.127Z,12.60
2019-05-03T01:57:02.450Z,12.70
2019-05-03T01:59:32.194Z,12.70
2019-05-03T02:02:23.325Z,12.70
2019-05-03T02:05:08.017Z,12.70
2019-05-03T02:07:36.937Z,12.60
2019-05-03T02:10:06.739Z,12.70
2019-05-03T02:12:35.805Z,12.60
2019-05-03T02:15:04.973Z,12.50
2019-05-03T02:17:33.954Z,12.60
2019-05-03T02:20:03.031Z,12.60
2019-05-03T02:26:02.882Z,12.50
2019-05-03T02:28:32.660Z,12.40
2019-05-03T02:31:03.456Z,12.50
2019-05-03T02:33:33.017Z,12.50
2019-05-03T02:36:03.620Z,12.50
2019-05-03T02:38:33.752Z,12.50
2019-05-03T02:41:03.264Z,12.40
2019-05-03T02:43:40.161Z,12.50
2019-05-03T02:46:28.279Z,12.40
2019-05-03T02:49:16.703Z,12.40
2019-05-03T02:51:46.237Z,12.50
2019-05-03T02:54:15.772Z,12.50
2019-05-03T02:56:46.079Z,12.50
2019-05-03T02:59:16.055Z,12.50
2019-05-03T03:01:46.934Z,12.60
2019-05-03T03:04:16.081Z,12.50
2019-05-03T03:06:47.070Z,12.50
2019-05-03T03:09:19.291Z,12.50
2019-05-03T03:11:50.908Z,12.60
2019-05-03T03:14:22.224Z,12.60
2019-05-03T03:16:51.880Z,12.60
2019-05-03T03:19:26.177Z,12.70
2019-05-03T03:21:58.683Z,12.70
2019-05-03T03:24:29.865Z,12.70
2019-05-03T03:27:01.230Z,12.60
2019-05-03T03:29:31.232Z,12.60
2019-05-03T03:32:21.203Z,12.60
2019-05-03T03:35:03.152Z,12.60
2019-05-03T03:37:30.367Z,12.50
2019-05-03T03:39:59.386Z,12.50
2019-05-03T03:42:31.407Z,12.40
2019-05-03T03:45:01.971Z,12.40
2019-05-03T03:47:35.596Z,12.20
2019-05-03T03:50:05.992Z,12.20
2019-05-03T03:52:36.733Z,12.20
2019-05-03T03:55:06.582Z,12.10
2019-05-03T03:57:36.691Z,12.10
2019-05-03T04:00:08.260Z,12.10
2019-05-03T04:02:39.270Z,11.90
2019-05-03T04:05:09.573Z,11.70
2019-05-03T04:07:39.758Z,11.70
2019-05-03T04:10:09.415Z,11.80
2019-05-03T04:12:47.463Z,11.70
2019-05-03T04:15:37.132Z,11.70
2019-05-03T04:18:16.306Z,11.80
2019-05-03T04:20:47.850Z,11.90
2019-05-03T04:23:16.890Z,12.00
2019-05-03T04:25:46.180Z,12.00
2019-05-03T04:28:16.246Z,12.00
2019-05-03T04:30:46.062Z,11.90
2019-05-03T04:33:16.121Z,11.90
2019-05-03T04:35:46.552Z,11.80
2019-05-03T04:38:16.255Z,11.70
2019-05-03T04:40:45.709Z,11.70
2019-05-03T04:43:16.521Z,11.70
2019-05-03T04:45:49.803Z,11.70
2019-05-03T04:48:18.982Z,11.70
2019-05-03T04:50:47.841Z,11.70
2019-05-03T04:53:16.712Z,11.60
2019-05-03T04:55:46.851Z,11.60
2019-05-03T04:58:16.347Z,11.70
2019-05-03T05:00:46.531Z,11.70
2019-05-03T05:03:15.946Z,11.70
2019-05-03T05:05:45.630Z,11.80
2019-05-03T05:08:16.230Z,11.90
2019-05-03T05:10:45.669Z,12.00
2019-05-03T05:13:15.808Z,12.10
2019-05-03T05:15:45.947Z,12.20
2019-05-03T05:18:26.349Z,12.20
2019-05-03T05:21:06.178Z,12.20
2019-05-03T05:23:35.429Z,12.00
2019-05-03T05:26:11.468Z,12.10
2019-05-03T05:28:48.109Z,12.10
2019-05-03T05:31:17.161Z,12.20
2019-05-03T05:33:46.727Z,12.30
2019-05-03T05:36:15.877Z,12.60
2019-05-03T05:38:45.147Z,13.00
2019-05-03T05:41:15.635Z,13.10
2019-05-03T05:43:44.840Z,13.00
2019-05-03T05:46:14.631Z,13.00
2019-05-03T05:48:49.454Z,13.00
2019-05-03T05:51:18.447Z,12.80
2019-05-03T05:53:47.363Z,12.80
2019-05-03T05:56:37.886Z,12.70
2019-05-03T05:59:26.825Z,12.70
2019-05-03T06:02:02.320Z,12.80
2019-05-03T06:04:31.545Z,12.70
2019-05-03T06:07:18.630Z,12.90
2019-05-03T06:09:54.997Z,12.90
2019-05-03T06:12:30.242Z,12.60
2019-05-03T06:15:04.701Z,12.20
2019-05-03T06:17:38.663Z,11.90
2019-05-03T06:20:45.199Z,11.90
2019-05-03T06:23:21.538Z,12.10
2019-05-03T06:25:50.814Z,12.20
2019-05-03T06:28:30.800Z,12.20
2019-05-03T06:31:15.457Z,12.20
2019-05-03T06:33:45.101Z,12.60
2019-05-03T06:36:15.283Z,13.20
2019-05-03T06:38:44.771Z,13.60
2019-05-03T06:41:15.081Z,13.80
2019-05-03T06:43:48.393Z,13.90
2019-05-03T06:46:18.123Z,14.20
2019-05-03T06:48:45.711Z,14.10
2019-05-03T06:51:19.322Z,14.10
2019-05-03T06:53:47.563Z,14.50
2019-05-03T06:56:19.378Z,14.60
2019-05-03T06:58:46.886Z,14.80
2019-05-03T07:01:25.707Z,14.70
2019-05-03T07:03:58.728Z,14.60
2019-05-03T07:06:40.318Z,14.50
2019-05-03T07:09:35.292Z,14.30
2019-05-03T07:12:04.618Z,14.50
2019-05-03T07:14:34.923Z,14.80
2019-05-03T07:17:05.575Z,14.90
2019-05-03T07:19:35.406Z,14.80
2019-05-03T07:22:05.118Z,14.80
2019-05-03T07:24:37.642Z,14.90
2019-05-03T07:27:05.487Z,14.90
2019-05-03T07:29:36.507Z,14.90
2019-05-03T07:32:05.417Z,14.80
2019-05-03T07:34:35.143Z,14.70
2019-05-03T07:37:05.906Z,14.90
2019-05-03T07:39:35.105Z,14.90
2019-05-03T07:42:05.477Z,15.20
2019-05-03T07:44:34.991Z,15.30
2019-05-03T07:47:04.838Z,15.20
2019-05-03T07:49:35.691Z,15.20
2019-05-03T07:52:05.871Z,15.30
2019-05-03T07:54:35.334Z,15.20
2019-05-03T07:57:25.480Z,15.30
2019-05-03T07:59:55.658Z,15.40
2019-05-03T08:02:27.272Z,15.50
2019-05-03T08:04:56.072Z,15.30
2019-05-03T08:07:25.807Z,15.40
2019-05-03T08:09:55.533Z,15.90
2019-05-03T08:12:24.873Z,16.20
2019-05-03T08:14:55.149Z,16.30
2019-05-03T08:17:25.534Z,16.40
2019-05-03T08:19:55.219Z,16.10
2019-05-03T08:22:25.497Z,16.20
2019-05-03T08:24:55.475Z,16.20
2019-05-03T08:27:25.240Z,16.60
2019-05-03T08:29:55.716Z,16.90
2019-05-03T08:32:38.562Z,16.80
2019-05-03T08:35:15.258Z,15.90
2019-05-03T08:37:55.997Z,15.40
2019-05-03T08:40:27.868Z,15.40
2019-05-03T08:42:56.827Z,15.50
2019-05-03T08:45:25.969Z,15.80
2019-05-03T08:47:55.410Z,15.90
2019-05-03T08:50:25.673Z,16.00
2019-05-03T08:52:55.764Z,16.20
2019-05-03T08:55:25.146Z,15.90
2019-05-03T08:57:55.098Z,15.60
2019-05-03T09:00:26.063Z,15.60
2019-05-03T09:02:55.063Z,15.50
2019-05-03T09:05:25.095Z,15.90
2019-05-03T09:07:54.887Z,16.20
2019-05-03T09:10:39.298Z,16.30
2019-05-03T09:13:10.356Z,16.40
2019-05-03T09:15:39.994Z,16.00
2019-05-03T09:18:09.078Z,15.90
2019-05-03T09:20:38.412Z,15.90
2019-05-03T09:23:07.485Z,16.10
2019-05-03T09:25:36.799Z,16.10
2019-05-03T09:28:06.182Z,15.70
2019-05-03T09:30:35.823Z,15.90
2019-05-03T09:33:08.632Z,15.70
2019-05-03T09:35:36.260Z,15.80
2019-05-03T09:38:05.825Z,15.70
2019-05-03T09:40:35.402Z,15.70
2019-05-03T09:43:04.745Z,16.00
2019-05-03T09:45:35.272Z,15.90
2019-05-03T09:48:05.740Z,15.90
2019-05-03T09:50:35.943Z,16.40
2019-05-03T09:53:05.626Z,16.80
2019-05-03T09:55:38.382Z,16.60
2019-05-03T09:58:07.637Z,16.90
2019-05-03T10:00:36.651Z,16.90
2019-05-03T10:03:05.844Z,16.70
2019-05-03T10:05:35.255Z,16.60
2019-05-03T10:08:05.330Z,16.10
2019-05-03T10:10:52.118Z,15.90
2019-05-03T10:13:23.479Z,16.20
2019-05-03T10:15:51.969Z,16.50
2019-05-03T10:18:21.010Z,16.70
2019-05-03T10:20:50.308Z,16.60
2019-05-03T10:23:36.925Z,16.70
2019-05-03T10:26:06.222Z,16.90
2019-05-03T10:28:35.500Z,17.00
2019-05-03T10:31:07.480Z,17.00
2019-05-03T10:33:42.090Z,16.40
2019-05-03T10:36:11.044Z,16.50
2019-05-03T10:38:39.918Z,16.60
2019-05-03T10:41:08.957Z,16.80
2019-05-03T10:43:38.012Z,17.00
2019-05-03T10:46:07.197Z,17.20
2019-05-03T10:48:36.165Z,17.30
2019-05-03T10:51:05.256Z,17.30
2019-05-03T10:53:37.931Z,16.80
2019-05-03T10:56:23.132Z,16.30
2019-05-03T10:58:58.117Z,15.90
2019-05-03T11:01:37.661Z,15.50
2019-05-03T11:04:06.660Z,15.60
2019-05-03T11:06:35.605Z,16.00
2019-05-03T11:09:08.479Z,16.60
2019-05-03T11:11:37.440Z,16.70
2019-05-03T11:14:06.453Z,16.70
2019-05-03T11:16:35.537Z,16.80
2019-05-03T11:19:05.397Z,16.90
2019-05-03T11:21:34.961Z,16.70
2019-05-03T11:24:04.371Z,16.80
2019-05-03T11:26:34.968Z,17.00
2019-05-03T11:29:05.159Z,17.00
2019-05-03T11:31:52.445Z,16.80
2019-05-03T11:34:25.331Z,16.70
2019-05-03T11:37:14.559Z,16.50
2019-05-03T11:39:45.197Z,16.70
2019-05-03T11:42:15.597Z,16.50
2019-05-03T11:44:45.009Z,16.50
2019-05-03T11:47:15.048Z,16.60
2019-05-03T11:49:45.397Z,16.50
2019-05-03T11:52:15.904Z,16.30
2019-05-03T11:54:45.573Z,16.50
2019-05-03T11:57:21.858Z,16.70
2019-05-03T11:59:51.186Z,16.80
2019-05-03T12:02:39.306Z,16.60
2019-05-03T12:05:15.120Z,16.90
2019-05-03T12:07:45.522Z,17.00
2019-05-03T12:10:30.917Z,17.20
2019-05-03T12:12:47.855Z,17.40
2019-05-03T12:15:18.697Z,17.50
2019-05-03T12:17:54.138Z,17.80
2019-05-03T12:20:21.680Z,17.80
2019-05-03T12:22:51.371Z,17.60
2019-05-03T12:25:21.265Z,18.00
2019-05-03T12:27:50.729Z,18.30
2019-05-03T12:30:19.903Z,18.30
2019-05-03T12:32:49.202Z,17.80
2019-05-03T12:35:18.221Z,17.70
2019-05-03T12:37:47.206Z,17.70
2019-05-03T12:40:16.196Z,17.50
2019-05-03T12:42:45.613Z,17.10
2019-05-03T12:45:15.416Z,17.10
2019-05-03T12:47:45.317Z,17.00
2019-05-03T12:50:15.718Z,16.60
2019-05-03T12:52:50.267Z,16.20
2019-05-03T12:55:15.582Z,16.10
2019-05-03T12:57:45.768Z,15.90
2019-05-03T13:00:26.034Z,16.30
2019-05-03T13:02:59.443Z,16.80
2019-05-03T13:05:29.361Z,17.30
2019-05-03T13:08:22.019Z,17.50
2019-05-03T13:10:51.085Z,17.60
2019-05-03T13:13:20.273Z,18.00
2019-05-03T13:15:49.354Z,18.00
2019-05-03T13:18:18.362Z,17.60
2019-05-03T13:20:47.363Z,17.30
2019-05-03T13:23:16.649Z,16.90
2019-05-03T13:25:45.701Z,16.80
2019-05-03T13:28:15.319Z,17.10
2019-05-03T13:30:45.311Z,17.20
2019-05-03T13:33:15.233Z,17.50
2019-05-03T13:35:44.667Z,17.50
2019-05-03T13:38:13.800Z,17.60
2019-05-03T13:40:45.150Z,17.40
2019-05-03T13:43:15.035Z,17.40
2019-05-03T13:45:45.046Z,17.20
2019-05-03T13:48:15.552Z,17.30
2019-05-03T13:50:45.217Z,17.20
2019-05-03T13:53:16.170Z,17.30
2019-05-03T13:55:44.953Z,17.30
2019-05-03T13:58:14.698Z,17.40
2019-05-03T14:00:45.386Z,17.20
2019-05-03T14:03:15.284Z,17.00
2019-05-03T14:05:44.672Z,16.90
2019-05-03T14:08:15.633Z,16.90
2019-05-03T14:10:45.539Z,17.10
2019-05-03T14:13:14.809Z,17.10
2019-05-03T14:15:45.302Z,16.90
2019-05-03T14:18:15.324Z,16.60
2019-05-03T14:21:05.004Z,16.40
2019-05-03T14:23:52.363Z,16.40
2019-05-03T14:26:21.743Z,16.30
2019-05-03T14:28:50.878Z,16.40
2019-05-03T14:31:19.966Z,16.50
2019-05-03T14:33:48.874Z,16.70
2019-05-03T14:36:17.869Z,16.90
2019-05-03T14:38:47.145Z,17.00
2019-05-03T14:41:16.112Z,17.10
2019-05-03T14:43:45.099Z,17.00
2019-05-03T14:46:16.303Z,17.00
2019-05-03T14:48:45.779Z,16.80
2019-05-03T14:51:14.844Z,16.50
2019-05-03T14:53:45.317Z,16.50
2019-05-03T14:56:22.340Z,16.30
2019-05-03T14:59:19.715Z,16.20
2019-05-03T15:01:55.441Z,16.10
2019-05-03T15:04:25.499Z,16.10
2019-05-03T15:06:54.929Z,16.10
2019-05-03T15:09:25.564Z,15.90
2019-05-03T15:11:54.748Z,16.00
2019-05-03T15:14:25.119Z,16.00
2019-05-03T15:16:55.732Z,15.70
2019-05-03T15:19:25.358Z,15.60
2019-05-03T15:21:54.863Z,15.60
2019-05-03T15:24:25.219Z,15.60
2019-05-03T15:26:55.358Z,15.60
2019-05-03T15:29:24.803Z,15.40
2019-05-03T15:31:55.250Z,15.40
2019-05-03T15:34:24.606Z,15.20
2019-05-03T15:36:54.642Z,15.30
2019-05-03T15:39:23.781Z,15.00
2019-05-03T15:41:54.358Z,15.10
2019-05-03T15:44:41.368Z,15.10
2019-05-03T15:47:18.114Z,15.00
2019-05-03T15:49:50.117Z,15.10
2019-05-03T15:52:22.148Z,15.10
2019-05-03T15:54:51.289Z,14.90
2019-05-03T15:57:20.304Z,14.80
2019-05-03T15:59:49.257Z,14.80
2019-05-03T16:02:18.214Z,14.50
2019-05-03T16:04:47.298Z,14.50
2019-05-03T16:07:16.320Z,14.30
2019-05-03T16:09:45.497Z,14.30
2019-05-03T16:12:14.780Z,14.40
2019-05-03T16:14:44.565Z,14.40
2019-05-03T16:17:14.751Z,14.40
2019-05-03T16:19:47.388Z,14.30
2019-05-03T16:22:14.961Z,14.00
2019-05-03T16:24:44.812Z,14.00
2019-05-03T16:27:42.795Z,14.00
2019-05-03T16:30:28.507Z,14.00
2019-05-03T16:32:57.509Z,13.80
2019-05-03T16:35:26.483Z,13.70
2019-05-03T16:37:55.569Z,13.70
2019-05-03T16:40:25.240Z,13.90
2019-05-03T16:42:54.338Z,13.80
2019-05-03T16:45:25.597Z,13.90
2019-05-03T16:47:54.687Z,13.90
2019-05-03T16:50:25.045Z,14.00
2019-05-03T16:52:55.013Z,13.90
2019-05-03T16:55:25.647Z,13.80
2019-05-03T16:57:55.022Z,13.90
2019-05-03T17:00:25.070Z,14.10
2019-05-03T17:02:55.082Z,14.20
2019-05-03T17:05:42.249Z,14.20
2019-05-03T17:08:25.480Z,14.10
2019-05-03T17:10:57.077Z,14.00
2019-05-03T17:13:26.530Z,13.90
2019-05-03T17:15:55.564Z,13.70
2019-05-03T17:18:24.752Z,13.60
2019-05-03T17:20:54.773Z,13.70
2019-05-03T17:23:24.635Z,13.80
2019-05-03T17:25:53.690Z,13.80
2019-05-03T17:28:24.717Z,12.40
2019-05-03T17:30:55.278Z,13.90
2019-05-03T17:33:25.327Z,13.80
2019-05-03T17:35:56.322Z,13.80
2019-05-03T17:38:31.356Z,13.90
2019-05-03T17:41:09.822Z,13.80
2019-05-03T17:43:48.842Z,13.90
2019-05-03T17:46:17.861Z,13.90
2019-05-03T17:48:46.949Z,14.00
2019-05-03T17:51:55.489Z,14.00
2019-05-03T17:54:44.848Z,14.00
2019-05-03T17:57:20.896Z,13.80
2019-05-03T17:59:55.014Z,13.50
2019-05-03T18:02:30.601Z,13.60
2019-05-03T18:05:18.650Z,13.60
2019-05-03T18:08:13.384Z,13.70
2019-05-03T18:10:45.126Z,13.70
2019-05-03T18:13:14.407Z,13.50
2019-05-03T18:15:44.914Z,13.40
2019-05-03T18:18:15.731Z,13.40
2019-05-03T18:20:45.051Z,13.50
2019-05-03T18:23:15.382Z,13.40
2019-05-03T18:25:44.758Z,13.30
2019-05-03T18:31:09.742Z,13.20
2019-05-03T18:33:41.156Z,13.20
2019-05-03T18:36:10.220Z,13.20
2019-05-03T18:38:39.866Z,13.20
2019-05-03T18:41:09.988Z,13.30
2019-05-03T18:43:57.228Z,13.20
2019-05-03T18:46:29.325Z,13.30
2019-05-03T18:48:58.299Z,13.30
2019-05-03T18:51:27.350Z,13.20
2019-05-03T18:53:59.634Z,13.20
2019-05-03T18:56:28.890Z,13.10
2019-05-03T18:58:57.838Z,13.10
2019-05-03T19:01:26.985Z,13.20
2019-05-03T19:04:02.123Z,13.10
2019-05-03T19:06:31.068Z,13.00
2019-05-03T19:09:25.414Z,12.90
2019-05-03T19:12:11.537Z,12.90
2019-05-03T19:14:40.962Z,13.00
2019-05-03T19:17:25.916Z,13.00
2019-05-03T19:19:55.288Z,13.10
2019-05-03T19:22:24.962Z,13.10
2019-05-03T19:24:54.183Z,13.10
2019-05-03T19:27:25.106Z,13.00
2019-05-03T19:29:55.467Z,12.80
2019-05-03T19:32:28.042Z,12.80
2019-05-03T19:34:56.283Z,12.80
2019-05-03T19:37:25.772Z,12.70
2019-05-03T19:39:55.392Z,12.60
2019-05-03T19:42:27.216Z,12.60
2019-05-03T19:44:55.431Z,12.50
2019-05-03T19:47:25.154Z,12.50
2019-05-03T19:49:54.810Z,12.50
2019-05-03T19:52:27.677Z,12.50
2019-05-03T19:54:56.764Z,12.40
2019-05-03T19:57:30.843Z,12.40
2019-05-03T19:59:59.888Z,12.40
2019-05-03T20:02:46.835Z,12.40
2019-05-03T20:05:34.514Z,12.40
2019-05-03T20:08:25.997Z,12.50
2019-05-03T20:11:14.649Z,12.60
2019-05-03T20:13:45.175Z,12.60
2019-05-03T20:16:15.321Z,12.70
2019-05-03T20:18:45.609Z,12.70
2019-05-03T20:21:15.228Z,12.70
2019-05-03T20:23:47.048Z,12.70
2019-05-03T20:26:16.174Z,12.70
2019-05-03T20:28:45.277Z,12.70
2019-05-03T20:31:14.551Z,12.80
2019-05-03T20:33:45.565Z,12.80
2019-05-03T20:36:14.891Z,12.80
2019-05-03T20:38:44.495Z,12.80
2019-05-03T20:41:14.830Z,12.80
2019-05-03T20:43:55.042Z,12.70
2019-05-03T20:46:34.203Z,12.70
2019-05-03T20:49:06.228Z,12.60
2019-05-03T20:51:35.200Z,12.50
2019-05-03T20:54:04.856Z,12.50
2019-05-03T20:56:34.462Z,12.40
2019-05-03T20:59:05.334Z,12.40
2019-05-03T21:01:34.776Z,12.40
2019-05-03T21:04:04.824Z,12.50
2019-05-03T21:06:35.859Z,12.50
2019-05-03T21:09:06.894Z,12.50
2019-05-03T21:11:36.924Z,12.50
2019-05-03T21:14:05.924Z,12.50
2019-05-03T21:16:58.633Z,12.50
2019-05-03T21:19:38.398Z,12.40
2019-05-03T21:22:26.256Z,12.40
2019-05-03T21:25:21.985Z,12.40
2019-05-03T21:27:51.056Z,12.40
2019-05-03T21:30:19.988Z,12.40
2019-05-03T21:32:49.236Z,12.40
2019-05-03T21:35:20.563Z,12.50
2019-05-03T21:37:48.955Z,12.40
2019-05-03T21:40:17.963Z,12.50
2019-05-03T21:42:46.988Z,12.50
2019-05-03T21:45:24.667Z,12.60
2019-05-03T21:48:14.641Z,12.60
2019-05-03T21:50:44.661Z,12.60
2019-05-03T21:53:14.755Z,12.60
2019-05-03T21:55:44.770Z,12.60
2019-05-03T21:58:16.118Z,12.60
2019-05-03T22:00:54.721Z,12.60
2019-05-03T22:03:25.247Z,12.60
2019-05-03T22:05:57.359Z,12.60
2019-05-03T22:08:25.124Z,12.50
2019-05-03T22:10:55.446Z,12.50
2019-05-03T22:13:24.773Z,12.50
2019-05-03T22:16:04.942Z,12.50
2019-05-03T22:18:35.103Z,12.40
2019-05-03T22:21:18.415Z,12.40
2019-05-03T22:23:58.278Z,12.40
2019-05-03T22:26:47.978Z,12.30
2019-05-03T22:29:17.436Z,12.30
2019-05-03T22:31:46.434Z,12.20
2019-05-03T22:34:15.464Z,12.30
2019-05-03T22:36:44.559Z,12.30
2019-05-03T22:39:15.635Z,12.40
2019-05-03T22:41:44.318Z,12.40
2019-05-03T22:44:16.804Z,12.30
2019-05-03T22:46:44.605Z,12.30
2019-05-03T22:49:15.588Z,12.20
2019-05-03T22:51:45.222Z,12.30
2019-05-03T22:54:15.434Z,12.30
2019-05-03T22:56:44.930Z,12.30
2019-05-03T22:59:15.647Z,12.30
2019-05-03T23:01:47.486Z,12.30
2019-05-03T23:04:18.282Z,12.20
2019-05-03T23:06:47.529Z,12.30
2019-05-03T23:09:16.589Z,12.20
2019-05-03T23:11:45.847Z,12.30
2019-05-03T23:14:15.255Z,12.30
2019-05-03T23:16:44.991Z,12.30
2019-05-03T23:19:14.978Z,12.30
2019-05-03T23:21:56.490Z,12.30
2019-05-03T23:24:25.565Z,12.30
2019-05-03T23:26:54.813Z,12.30
2019-05-03T23:29:23.714Z,12.30
2019-05-03T23:31:52.672Z,12.30
2019-05-03T23:34:21.704Z,12.30
2019-05-03T23:36:51.045Z,12.20
2019-05-03T23:39:20.123Z,12.20
2019-05-03T23:41:49.131Z,12.20
2019-05-03T23:44:18.186Z,11.70
2019-05-03T23:46:54.707Z,11.50
2019-05-03T23:49:25.036Z,11.40
2019-05-03T23:51:56.603Z,11.40
2019-05-03T23:54:25.646Z,11.50
2019-05-03T23:56:54.780Z,11.40
2019-05-03T23:59:24.105Z,11.10
